sensor_id;sensor_type;location;lat;lon;timestamp;pressure;altitude;pressure_sealevel;temperature;humidity
21779;BME280;11050;52.222;20.916;2022-11-15T00:00:54;100574.53;;;7.75;100.00
21779;BME280;11050;52.222;20.916;2022-11-15T00:03:26;100596.56;;;7.80;100.00
21779;BME280;11050;52.222;20.916;2022-11-15T00:05:52;100595.47;;;7.81;100.00
21779;BME280;11050;52.222;20.916;2022-11-15T00:08:19;100563.75;;;7.61;100.00
21779;BME280;11050;52.222;20.916;2022-11-15T00:10:56;100572.47;;;7.70;100.00
21779;BME280;11050;52.222;20.916;2022-11-15T00:13:22;100554.94;;;7.59;100.00
21779;BME280;11050;52.222;20.916;2022-11-15T00:15:48;100559.34;;;7.60;100.00
21779;BME280;11050;52.222;20.916;2022-11-15T00:18:14;100566.63;;;7.66;100.00
21779;BME280;11050;52.222;20.916;2022-11-15T00:20:41;100565.09;;;7.52;100.00
21779;BME280;11050;52.222;20.916;2022-11-15T00:23:07;100559.88;;;7.51;100.00
21779;BME280;11050;52.222;20.916;2022-11-15T00:25:33;100556.47;;;7.55;100.00
21779;BME280;11050;52.222;20.916;2022-11-15T00:28:00;100552.59;;;7.63;100.00
21779;BME280;11050;52.222;20.916;2022-11-15T00:30:27;100555.94;;;7.65;100.00
21779;BME280;11050;52.222;20.916;2022-11-15T00:32:54;100548.09;;;7.68;100.00
21779;BME280;11050;52.222;20.916;2022-11-15T00:35:20;100545.13;;;7.70;100.00
21779;BME280;11050;52.222;20.916;2022-11-15T00:37:46;100534.19;;;7.70;100.00
21779;BME280;11050;52.222;20.916;2022-11-15T00:40:14;100531.81;;;7.74;100.00
21779;BME280;11050;52.222;20.916;2022-11-15T00:42:40;100524.84;;;7.78;100.00
21779;BME280;11050;52.222;20.916;2022-11-15T00:45:07;100518.16;;;7.74;100.00
21779;BME280;11050;52.222;20.916;2022-11-15T00:47:33;100513.50;;;7.74;100.00
21779;BME280;11050;52.222;20.916;2022-11-15T00:49:59;100513.28;;;7.76;100.00
21779;BME280;11050;52.222;20.916;2022-11-15T00:52:25;100506.34;;;7.73;100.00
21779;BME280;11050;52.222;20.916;2022-11-15T00:54:51;100505.31;;;7.74;100.00
21779;BME280;11050;52.222;20.916;2022-11-15T00:57:16;100493.63;;;7.67;100.00
21779;BME280;11050;52.222;20.916;2022-11-15T00:59:42;100502.22;;;7.71;100.00
21779;BME280;11050;52.222;20.916;2022-11-15T01:02:08;100496.25;;;7.74;100.00
21779;BME280;11050;52.222;20.916;2022-11-15T01:04:34;100494.97;;;7.76;100.00
21779;BME280;11050;52.222;20.916;2022-11-15T01:06:59;100496.56;;;7.65;100.00
21779;BME280;11050;52.222;20.916;2022-11-15T01:09:25;100490.34;;;7.58;100.00
21779;BME280;11050;52.222;20.916;2022-11-15T01:11:51;100475.84;;;7.58;100.00
21779;BME280;11050;52.222;20.916;2022-11-15T01:14:17;100475.78;;;7.64;100.00
21779;BME280;11050;52.222;20.916;2022-11-15T01:16:43;100473.72;;;7.60;100.00
21779;BME280;11050;52.222;20.916;2022-11-15T01:19:09;100466.59;;;7.59;100.00
21779;BME280;11050;52.222;20.916;2022-11-15T01:21:34;100463.94;;;7.52;100.00
21779;BME280;11050;52.222;20.916;2022-11-15T01:24:00;100463.94;;;7.52;100.00
21779;BME280;11050;52.222;20.916;2022-11-15T01:26:26;100466.22;;;7.55;100.00
21779;BME280;11050;52.222;20.916;2022-11-15T01:28:52;100478.31;;;7.48;100.00
21779;BME280;11050;52.222;20.916;2022-11-15T01:31:20;100460.44;;;7.45;100.00
21779;BME280;11050;52.222;20.916;2022-11-15T01:33:48;100457.03;;;7.50;100.00
21779;BME280;11050;52.222;20.916;2022-11-15T01:36:19;100469.25;;;7.47;100.00
21779;BME280;11050;52.222;20.916;2022-11-15T01:38:45;100449.88;;;7.49;100.00
21779;BME280;11050;52.222;20.916;2022-11-15T01:41:26;100460.75;;;7.55;100.00
21779;BME280;11050;52.222;20.916;2022-11-15T01:43:56;100462.78;;;7.60;100.00
21779;BME280;11050;52.222;20.916;2022-11-15T01:46:30;100454.66;;;7.53;100.00
21779;BME280;11050;52.222;20.916;2022-11-15T01:49:06;100439.41;;;7.46;100.00
21779;BME280;11050;52.222;20.916;2022-11-15T01:51:37;100445.25;;;7.49;100.00
21779;BME280;11050;52.222;20.916;2022-11-15T01:54:11;100447.63;;;7.46;100.00
21779;BME280;11050;52.222;20.916;2022-11-15T01:56:48;100438.72;;;7.50;100.00
21779;BME280;11050;52.222;20.916;2022-11-15T01:59:15;100435.59;;;7.47;100.00
21779;BME280;11050;52.222;20.916;2022-11-15T02:01:42;100416.41;;;7.35;100.00
21779;BME280;11050;52.222;20.916;2022-11-15T02:04:13;100418.22;;;7.41;100.00
21779;BME280;11050;52.222;20.916;2022-11-15T02:06:43;100406.56;;;7.34;100.00
21779;BME280;11050;52.222;20.916;2022-11-15T02:09:10;100417.47;;;7.34;100.00
21779;BME280;11050;52.222;20.916;2022-11-15T02:11:37;100423.44;;;7.31;100.00
21779;BME280;11050;52.222;20.916;2022-11-15T02:14:04;100425.31;;;7.31;100.00
21779;BME280;11050;52.222;20.916;2022-11-15T02:23:14;100417.34;;;7.29;100.00
21779;BME280;11050;52.222;20.916;2022-11-15T02:31:55;100394.94;;;7.21;100.00
21779;BME280;11050;52.222;20.916;2022-11-15T02:37:45;100399.03;;;7.30;100.00
21779;BME280;11050;52.222;20.916;2022-11-15T02:43:27;100385.97;;;7.32;100.00
21779;BME280;11050;52.222;20.916;2022-11-15T02:49:31;100388.53;;;7.45;100.00
21779;BME280;11050;52.222;20.916;2022-11-15T02:51:58;100393.84;;;7.40;100.00
21779;BME280;11050;52.222;20.916;2022-11-15T02:54:29;100384.81;;;7.39;100.00
21779;BME280;11050;52.222;20.916;2022-11-15T02:57:10;100385.91;;;7.20;100.00
21779;BME280;11050;52.222;20.916;2022-11-15T02:59:55;100364.03;;;7.20;100.00
21779;BME280;11050;52.222;20.916;2022-11-15T03:06:03;100367.06;;;7.30;100.00
21779;BME280;11050;52.222;20.916;2022-11-15T03:08:32;100364.09;;;7.32;100.00
21779;BME280;11050;52.222;20.916;2022-11-15T03:11:17;100359.19;;;7.22;100.00
21779;BME280;11050;52.222;20.916;2022-11-15T03:14:12;100347.75;;;7.14;100.00
21779;BME280;11050;52.222;20.916;2022-11-15T03:19:46;100352.31;;;7.20;100.00
21779;BME280;11050;52.222;20.916;2022-11-15T03:22:18;100337.06;;;7.12;100.00
21779;BME280;11050;52.222;20.916;2022-11-15T03:24:51;100347.88;;;7.19;100.00
21779;BME280;11050;52.222;20.916;2022-11-15T03:27:24;100341.69;;;7.12;100.00
21779;BME280;11050;52.222;20.916;2022-11-15T03:29:58;100349.41;;;7.15;100.00
21779;BME280;11050;52.222;20.916;2022-11-15T03:32:32;100337.19;;;7.17;100.00
21779;BME280;11050;52.222;20.916;2022-11-15T03:35:12;100329.91;;;7.11;100.00
21779;BME280;11050;52.222;20.916;2022-11-15T03:38:23;100329.84;;;7.18;100.00
21779;BME280;11050;52.222;20.916;2022-11-15T03:41:04;100332.19;;;7.14;100.00
21779;BME280;11050;52.222;20.916;2022-11-15T03:43:47;100316.78;;;7.20;100.00
21779;BME280;11050;52.222;20.916;2022-11-15T03:46:26;100318.19;;;7.22;100.00
21779;BME280;11050;52.222;20.916;2022-11-15T03:49:07;100312.50;;;7.24;100.00
21779;BME280;11050;52.222;20.916;2022-11-15T03:51:35;100313.31;;;7.24;100.00
21779;BME280;11050;52.222;20.916;2022-11-15T03:54:05;100312.63;;;7.29;100.00
21779;BME280;11050;52.222;20.916;2022-11-15T03:56:31;100308.00;;;7.29;100.00
21779;BME280;11050;52.222;20.916;2022-11-15T03:58:57;100305.50;;;7.28;100.00
21779;BME280;11050;52.222;20.916;2022-11-15T04:01:23;100293.38;;;7.24;100.00
21779;BME280;11050;52.222;20.916;2022-11-15T04:03:49;100302.38;;;7.24;100.00
21779;BME280;11050;52.222;20.916;2022-11-15T04:06:15;100291.81;;;7.16;100.00
21779;BME280;11050;52.222;20.916;2022-11-15T04:08:40;100281.56;;;7.12;100.00
21779;BME280;11050;52.222;20.916;2022-11-15T04:11:06;100290.72;;;7.17;100.00
21779;BME280;11050;52.222;20.916;2022-11-15T04:13:32;100291.94;;;7.21;100.00
21779;BME280;11050;52.222;20.916;2022-11-15T04:15:57;100292.53;;;7.23;100.00
21779;BME280;11050;52.222;20.916;2022-11-15T04:18:23;100286.59;;;7.26;100.00
21779;BME280;11050;52.222;20.916;2022-11-15T04:20:49;100280.88;;;7.28;100.00
21779;BME280;11050;52.222;20.916;2022-11-15T04:23:33;100286.97;;;7.30;100.00
21779;BME280;11050;52.222;20.916;2022-11-15T04:26:21;100286.72;;;7.20;100.00
21779;BME280;11050;52.222;20.916;2022-11-15T04:28:47;100281.47;;;7.18;100.00
21779;BME280;11050;52.222;20.916;2022-11-15T04:31:32;100282.78;;;7.16;100.00
21779;BME280;11050;52.222;20.916;2022-11-15T04:33:58;100284.41;;;7.17;100.00
21779;BME280;11050;52.222;20.916;2022-11-15T04:36:24;100278.59;;;7.13;100.00
21779;BME280;11050;52.222;20.916;2022-11-15T04:39:09;100280.88;;;7.16;100.00
21779;BME280;11050;52.222;20.916;2022-11-15T04:41:35;100279.44;;;7.14;100.00
21779;BME280;11050;52.222;20.916;2022-11-15T04:44:00;100273.13;;;7.13;100.00
21779;BME280;11050;52.222;20.916;2022-11-15T04:46:26;100273.28;;;7.18;100.00
21779;BME280;11050;52.222;20.916;2022-11-15T04:48:53;100269.09;;;7.16;100.00
21779;BME280;11050;52.222;20.916;2022-11-15T04:51:19;100272.56;;;7.23;100.00
21779;BME280;11050;52.222;20.916;2022-11-15T04:53:45;100278.41;;;7.26;100.00
21779;BME280;11050;52.222;20.916;2022-11-15T04:56:11;100266.13;;;7.17;100.00
21779;BME280;11050;52.222;20.916;2022-11-15T04:58:37;100268.75;;;7.12;100.00
21779;BME280;11050;52.222;20.916;2022-11-15T05:01:14;100269.19;;;7.09;100.00
21779;BME280;11050;52.222;20.916;2022-11-15T05:03:41;100263.59;;;7.04;100.00
21779;BME280;11050;52.222;20.916;2022-11-15T05:06:26;100259.41;;;7.02;100.00
21779;BME280;11050;52.222;20.916;2022-11-15T05:08:52;100260.13;;;6.97;100.00
21779;BME280;11050;52.222;20.916;2022-11-15T05:11:17;100258.81;;;7.00;100.00
21779;BME280;11050;52.222;20.916;2022-11-15T05:13:43;100255.88;;;7.01;100.00
21779;BME280;11050;52.222;20.916;2022-11-15T05:16:09;100254.13;;;6.89;100.00
21779;BME280;11050;52.222;20.916;2022-11-15T05:18:35;100259.22;;;6.85;100.00
21779;BME280;11050;52.222;20.916;2022-11-15T05:21:10;100258.19;;;6.86;100.00
21779;BME280;11050;52.222;20.916;2022-11-15T05:23:38;100256.50;;;6.85;100.00
21779;BME280;11050;52.222;20.916;2022-11-15T05:26:06;100258.31;;;6.91;100.00
21779;BME280;11050;52.222;20.916;2022-11-15T05:28:32;100245.13;;;6.88;100.00
21779;BME280;11050;52.222;20.916;2022-11-15T05:31:13;100253.69;;;6.92;100.00
21779;BME280;11050;52.222;20.916;2022-11-15T05:33:41;100249.03;;;6.92;100.00
21779;BME280;11050;52.222;20.916;2022-11-15T05:36:34;100249.53;;;6.89;100.00
21779;BME280;11050;52.222;20.916;2022-11-15T05:39:03;100252.56;;;6.81;100.00
21779;BME280;11050;52.222;20.916;2022-11-15T05:41:48;100247.09;;;6.81;100.00
21779;BME280;11050;52.222;20.916;2022-11-15T05:44:21;100245.59;;;6.85;100.00
21779;BME280;11050;52.222;20.916;2022-11-15T05:46:50;100243.44;;;6.87;100.00
21779;BME280;11050;52.222;20.916;2022-11-15T05:49:22;100248.69;;;6.89;100.00
21779;BME280;11050;52.222;20.916;2022-11-15T05:51:52;100241.03;;;6.79;100.00
21779;BME280;11050;52.222;20.916;2022-11-15T05:54:21;100230.94;;;6.80;100.00
21779;BME280;11050;52.222;20.916;2022-11-15T05:56:49;100230.72;;;6.81;100.00
21779;BME280;11050;52.222;20.916;2022-11-15T05:59:15;100230.13;;;6.79;100.00
21779;BME280;11050;52.222;20.916;2022-11-15T06:01:41;100239.75;;;6.82;100.00
21779;BME280;11050;52.222;20.916;2022-11-15T06:04:07;100231.25;;;6.71;100.00
21779;BME280;11050;52.222;20.916;2022-11-15T06:06:33;100245.28;;;6.75;100.00
21779;BME280;11050;52.222;20.916;2022-11-15T06:08:58;100243.94;;;6.84;100.00
21779;BME280;11050;52.222;20.916;2022-11-15T06:11:24;100246.31;;;6.92;100.00
21779;BME280;11050;52.222;20.916;2022-11-15T06:13:50;100244.06;;;6.89;100.00
21779;BME280;11050;52.222;20.916;2022-11-15T06:16:15;100253.91;;;6.90;100.00
21779;BME280;11050;52.222;20.916;2022-11-15T06:18:41;100240.44;;;6.77;100.00
21779;BME280;11050;52.222;20.916;2022-11-15T06:21:07;100254.25;;;6.82;100.00
21779;BME280;11050;52.222;20.916;2022-11-15T06:23:34;100253.03;;;6.78;100.00
21779;BME280;11050;52.222;20.916;2022-11-15T06:26:02;100251.34;;;6.77;100.00
21779;BME280;11050;52.222;20.916;2022-11-15T06:28:32;100246.22;;;6.69;100.00
21779;BME280;11050;52.222;20.916;2022-11-15T06:31:06;100247.22;;;6.75;100.00
21779;BME280;11050;52.222;20.916;2022-11-15T06:33:32;100243.41;;;6.76;100.00
21779;BME280;11050;52.222;20.916;2022-11-15T06:36:08;100249.09;;;6.74;100.00
21779;BME280;11050;52.222;20.916;2022-11-15T06:38:35;100260.50;;;6.71;100.00
21779;BME280;11050;52.222;20.916;2022-11-15T06:41:07;100258.91;;;6.63;100.00
21779;BME280;11050;52.222;20.916;2022-11-15T06:43:34;100251.91;;;6.67;100.00
21779;BME280;11050;52.222;20.916;2022-11-15T06:46:02;100243.72;;;6.67;100.00
21779;BME280;11050;52.222;20.916;2022-11-15T06:48:29;100260.69;;;6.69;100.00
21779;BME280;11050;52.222;20.916;2022-11-15T06:50:59;100257.06;;;6.76;100.00
21779;BME280;11050;52.222;20.916;2022-11-15T06:53:26;100255.41;;;6.75;100.00
21779;BME280;11050;52.222;20.916;2022-11-15T06:55:53;100256.06;;;6.70;100.00
21779;BME280;11050;52.222;20.916;2022-11-15T06:58:20;100263.22;;;6.71;100.00
21779;BME280;11050;52.222;20.916;2022-11-15T07:00:46;100263.34;;;6.76;100.00
21779;BME280;11050;52.222;20.916;2022-11-15T07:03:12;100251.75;;;6.81;100.00
21779;BME280;11050;52.222;20.916;2022-11-15T07:05:38;100264.41;;;6.75;100.00
21779;BME280;11050;52.222;20.916;2022-11-15T07:08:04;100265.72;;;6.72;100.00
21779;BME280;11050;52.222;20.916;2022-11-15T07:10:30;100265.25;;;6.76;100.00
21779;BME280;11050;52.222;20.916;2022-11-15T07:12:56;100265.41;;;6.81;100.00
21779;BME280;11050;52.222;20.916;2022-11-15T07:15:25;100253.13;;;6.71;100.00
21779;BME280;11050;52.222;20.916;2022-11-15T07:17:51;100268.69;;;6.71;100.00
21779;BME280;11050;52.222;20.916;2022-11-15T07:20:18;100256.63;;;6.60;100.00
21779;BME280;11050;52.222;20.916;2022-11-15T07:22:44;100270.88;;;6.62;100.00
21779;BME280;11050;52.222;20.916;2022-11-15T07:25:13;100259.53;;;6.65;100.00
21779;BME280;11050;52.222;20.916;2022-11-15T07:27:38;100264.28;;;6.70;100.00
21779;BME280;11050;52.222;20.916;2022-11-15T07:30:05;100263.81;;;6.73;100.00
21779;BME280;11050;52.222;20.916;2022-11-15T07:32:31;100264.19;;;6.77;100.00
21779;BME280;11050;52.222;20.916;2022-11-15T07:34:57;100250.31;;;6.78;100.00
21779;BME280;11050;52.222;20.916;2022-11-15T07:37:22;100263.84;;;6.85;100.00
21779;BME280;11050;52.222;20.916;2022-11-15T07:39:48;100265.44;;;6.92;100.00
21779;BME280;11050;52.222;20.916;2022-11-15T07:42:14;100260.56;;;6.94;100.00
21779;BME280;11050;52.222;20.916;2022-11-15T07:44:58;100256.19;;;6.93;100.00
21779;BME280;11050;52.222;20.916;2022-11-15T07:47:24;100253.22;;;6.95;100.00
21779;BME280;11050;52.222;20.916;2022-11-15T07:49:50;100245.50;;;6.92;100.00
21779;BME280;11050;52.222;20.916;2022-11-15T07:52:15;100253.16;;;7.01;100.00
21779;BME280;11050;52.222;20.916;2022-11-15T07:54:41;100238.41;;;7.02;100.00
21779;BME280;11050;52.222;20.916;2022-11-15T07:57:07;100247.38;;;7.21;100.00
21779;BME280;11050;52.222;20.916;2022-11-15T07:59:34;100243.09;;;7.25;100.00
21779;BME280;11050;52.222;20.916;2022-11-15T08:02:01;100231.13;;;7.26;100.00
21779;BME280;11050;52.222;20.916;2022-11-15T08:04:27;100232.09;;;7.31;100.00
21779;BME280;11050;52.222;20.916;2022-11-15T08:06:53;100216.28;;;7.33;100.00
21779;BME280;11050;52.222;20.916;2022-11-15T08:09:19;100216.28;;;7.33;100.00
21779;BME280;11050;52.222;20.916;2022-11-15T08:11:44;100211.28;;;7.30;100.00
21779;BME280;11050;52.222;20.916;2022-11-15T08:14:10;100217.34;;;7.32;100.00
21779;BME280;11050;52.222;20.916;2022-11-15T08:16:36;100211.38;;;7.35;100.00
21779;BME280;11050;52.222;20.916;2022-11-15T08:19:01;100215.19;;;7.34;100.00
21779;BME280;11050;52.222;20.916;2022-11-15T08:21:27;100214.28;;;7.40;100.00
21779;BME280;11050;52.222;20.916;2022-11-15T08:23:53;100215.81;;;7.36;100.00
21779;BME280;11050;52.222;20.916;2022-11-15T08:26:18;100210.56;;;7.35;100.00
21779;BME280;11050;52.222;20.916;2022-11-15T08:28:44;100210.56;;;7.35;100.00
21779;BME280;11050;52.222;20.916;2022-11-15T08:31:15;100205.34;;;7.33;100.00
21779;BME280;11050;52.222;20.916;2022-11-15T08:33:43;100194.88;;;7.30;100.00
21779;BME280;11050;52.222;20.916;2022-11-15T08:36:16;100205.47;;;7.38;100.00
21779;BME280;11050;52.222;20.916;2022-11-15T08:38:42;100195.72;;;7.42;100.00
21779;BME280;11050;52.222;20.916;2022-11-15T08:41:29;100198.56;;;7.47;100.00
21779;BME280;11050;52.222;20.916;2022-11-15T08:43:56;100186.34;;;7.50;100.00
21779;BME280;11050;52.222;20.916;2022-11-15T08:46:22;100209.19;;;7.67;100.00
21779;BME280;11050;52.222;20.916;2022-11-15T08:48:48;100206.91;;;7.76;100.00
21779;BME280;11050;52.222;20.916;2022-11-15T08:51:13;100198.09;;;7.74;100.00
21779;BME280;11050;52.222;20.916;2022-11-15T08:53:39;100201.94;;;7.73;100.00
21779;BME280;11050;52.222;20.916;2022-11-15T08:56:11;100195.88;;;7.71;100.00
21779;BME280;11050;52.222;20.916;2022-11-15T08:58:38;100195.03;;;7.82;100.00
21779;BME280;11050;52.222;20.916;2022-11-15T09:01:04;100205.47;;;7.85;100.00
21779;BME280;11050;52.222;20.916;2022-11-15T09:03:30;100188.13;;;7.79;100.00
21779;BME280;11050;52.222;20.916;2022-11-15T09:05:59;100187.50;;;7.89;100.00
21779;BME280;11050;52.222;20.916;2022-11-15T09:08:29;100186.47;;;7.90;100.00
21779;BME280;11050;52.222;20.916;2022-11-15T09:10:55;100175.97;;;7.87;100.00
21779;BME280;11050;52.222;20.916;2022-11-15T09:13:22;100172.19;;;7.88;100.00
21779;BME280;11050;52.222;20.916;2022-11-15T09:15:47;100180.13;;;8.01;100.00
21779;BME280;11050;52.222;20.916;2022-11-15T09:18:14;100176.31;;;7.90;100.00
21779;BME280;11050;52.222;20.916;2022-11-15T09:20:39;100174.78;;;7.83;100.00
21779;BME280;11050;52.222;20.916;2022-11-15T09:23:06;100175.63;;;7.95;100.00
21779;BME280;11050;52.222;20.916;2022-11-15T09:25:32;100161.00;;;7.89;100.00
21779;BME280;11050;52.222;20.916;2022-11-15T09:27:58;100163.13;;;7.99;100.00
21779;BME280;11050;52.222;20.916;2022-11-15T09:30:25;100160.63;;;7.97;100.00
21779;BME280;11050;52.222;20.916;2022-11-15T09:32:51;100164.16;;;8.09;100.00
21779;BME280;11050;52.222;20.916;2022-11-15T09:35:17;100150.22;;;8.11;100.00
21779;BME280;11050;52.222;20.916;2022-11-15T09:37:43;100152.97;;;8.11;100.00
21779;BME280;11050;52.222;20.916;2022-11-15T09:40:13;100159.97;;;8.18;100.00
21779;BME280;11050;52.222;20.916;2022-11-15T09:43:04;100133.69;;;8.17;100.00
21779;BME280;11050;52.222;20.916;2022-11-15T09:45:57;100147.03;;;8.25;100.00
21779;BME280;11050;52.222;20.916;2022-11-15T09:48:56;100139.63;;;8.26;100.00
21779;BME280;11050;52.222;20.916;2022-11-15T09:51:45;100144.13;;;8.20;100.00
21779;BME280;11050;52.222;20.916;2022-11-15T09:54:38;100147.03;;;8.14;100.00
21779;BME280;11050;52.222;20.916;2022-11-15T09:57:16;100137.75;;;8.03;100.00
21779;BME280;11050;52.222;20.916;2022-11-15T10:05:04;100116.56;;;8.22;100.00
21779;BME280;11050;52.222;20.916;2022-11-15T10:07:59;100126.91;;;8.20;100.00
21779;BME280;11050;52.222;20.916;2022-11-15T10:10:45;100118.91;;;8.30;100.00
21779;BME280;11050;52.222;20.916;2022-11-15T10:13:30;100115.38;;;8.29;100.00
21779;BME280;11050;52.222;20.916;2022-11-15T10:16:16;100096.22;;;8.18;100.00
21779;BME280;11050;52.222;20.916;2022-11-15T10:24:44;100099.72;;;8.41;100.00
21779;BME280;11050;52.222;20.916;2022-11-15T10:27:16;100116.25;;;8.46;100.00
21779;BME280;11050;52.222;20.916;2022-11-15T10:29:50;100111.91;;;8.50;100.00
21779;BME280;11050;52.222;20.916;2022-11-15T10:32:18;100115.59;;;8.56;100.00
21779;BME280;11050;52.222;20.916;2022-11-15T10:34:47;100101.69;;;8.57;100.00
21779;BME280;11050;52.222;20.916;2022-11-15T10:37:13;100097.00;;;8.58;100.00
21779;BME280;11050;52.222;20.916;2022-11-15T10:39:40;100091.88;;;8.62;100.00
21779;BME280;11050;52.222;20.916;2022-11-15T10:42:28;100089.72;;;8.63;100.00
21779;BME280;11050;52.222;20.916;2022-11-15T10:44:54;100102.03;;;8.78;100.00
21779;BME280;11050;52.222;20.916;2022-11-15T10:47:27;100097.72;;;8.82;100.00
21779;BME280;11050;52.222;20.916;2022-11-15T10:50:01;100079.53;;;8.76;100.00
21779;BME280;11050;52.222;20.916;2022-11-15T10:52:30;100088.91;;;8.80;100.00
21779;BME280;11050;52.222;20.916;2022-11-15T10:55:21;100096.34;;;8.68;100.00
21779;BME280;11050;52.222;20.916;2022-11-15T10:57:57;100085.25;;;8.74;100.00
21779;BME280;11050;52.222;20.916;2022-11-15T11:00:33;100083.94;;;8.77;100.00
21779;BME280;11050;52.222;20.916;2022-11-15T11:03:27;100074.97;;;8.81;100.00
21779;BME280;11050;52.222;20.916;2022-11-15T11:06:06;100074.56;;;8.89;100.00
21779;BME280;11050;52.222;20.916;2022-11-15T11:08:32;100077.38;;;8.94;100.00
21779;BME280;11050;52.222;20.916;2022-11-15T11:11:02;100077.81;;;9.03;100.00
21779;BME280;11050;52.222;20.916;2022-11-15T11:13:31;100082.53;;;9.07;100.00
21779;BME280;11050;52.222;20.916;2022-11-15T11:27:26;100063.66;;;9.11;100.00
21779;BME280;11050;52.222;20.916;2022-11-15T11:30:16;100060.69;;;9.12;100.00
21779;BME280;11050;52.222;20.916;2022-11-15T11:47:32;100041.47;;;9.29;100.00
21779;BME280;11050;52.222;20.916;2022-11-15T11:50:15;100027.13;;;9.22;100.00
21779;BME280;11050;52.222;20.916;2022-11-15T11:55:33;100023.13;;;9.29;100.00
21779;BME280;11050;52.222;20.916;2022-11-15T11:58:38;100030.91;;;9.37;100.00
21779;BME280;11050;52.222;20.916;2022-11-15T12:04:21;100014.59;;;9.47;100.00
21779;BME280;11050;52.222;20.916;2022-11-15T12:07:09;100002.53;;;9.48;100.00
21779;BME280;11050;52.222;20.916;2022-11-15T12:09:59;100020.91;;;9.48;100.00
21779;BME280;11050;52.222;20.916;2022-11-15T12:12:49;100010.75;;;9.48;100.00
21779;BME280;11050;52.222;20.916;2022-11-15T12:15:23;100016.22;;;9.48;100.00
21779;BME280;11050;52.222;20.916;2022-11-15T12:17:50;100010.69;;;9.43;100.00
21779;BME280;11050;52.222;20.916;2022-11-15T12:20:26;100006.41;;;9.52;100.00
21779;BME280;11050;52.222;20.916;2022-11-15T12:25:53;100003.19;;;9.55;100.00
21779;BME280;11050;52.222;20.916;2022-11-15T12:28:40;99998.28;;;9.57;100.00
21779;BME280;11050;52.222;20.916;2022-11-15T12:31:19;100004.25;;;9.54;100.00
21779;BME280;11050;52.222;20.916;2022-11-15T12:33:48;99996.53;;;9.51;100.00
21779;BME280;11050;52.222;20.916;2022-11-15T12:38:55;99987.59;;;9.39;100.00
21779;BME280;11050;52.222;20.916;2022-11-15T12:41:34;99981.47;;;9.32;100.00
21779;BME280;11050;52.222;20.916;2022-11-15T12:44:01;99989.53;;;9.22;100.00
21779;BME280;11050;52.222;20.916;2022-11-15T12:49:01;99979.53;;;9.11;100.00
21779;BME280;11050;52.222;20.916;2022-11-15T13:04:47;99978.53;;;9.17;100.00
21779;BME280;11050;52.222;20.916;2022-11-15T13:13:01;99966.13;;;9.15;100.00
21779;BME280;11050;52.222;20.916;2022-11-15T13:15:39;99973.28;;;9.16;100.00
21779;BME280;11050;52.222;20.916;2022-11-15T13:18:36;99967.28;;;9.19;100.00
21779;BME280;11050;52.222;20.916;2022-11-15T13:21:17;99963.50;;;9.20;100.00
21779;BME280;11050;52.222;20.916;2022-11-15T13:24:17;99954.38;;;9.14;100.00
21779;BME280;11050;52.222;20.916;2022-11-15T13:26:43;99957.66;;;9.16;100.00
21779;BME280;11050;52.222;20.916;2022-11-15T13:29:17;99956.28;;;9.14;100.00
21779;BME280;11050;52.222;20.916;2022-11-15T13:31:45;99946.94;;;9.15;100.00
21779;BME280;11050;52.222;20.916;2022-11-15T13:34:31;99946.94;;;9.15;100.00
21779;BME280;11050;52.222;20.916;2022-11-15T13:37:02;99943.56;;;9.08;100.00
21779;BME280;11050;52.222;20.916;2022-11-15T13:39:34;99943.25;;;9.04;100.00
21779;BME280;11050;52.222;20.916;2022-11-15T13:42:03;99932.78;;;9.01;100.00
21779;BME280;11050;52.222;20.916;2022-11-15T13:44:33;99938.59;;;9.05;100.00
21779;BME280;11050;52.222;20.916;2022-11-15T13:47:15;99947.06;;;9.03;100.00
21779;BME280;11050;52.222;20.916;2022-11-15T13:49:48;99944.25;;;8.98;100.00
21779;BME280;11050;52.222;20.916;2022-11-15T13:52:15;99942.59;;;8.97;100.00
21779;BME280;11050;52.222;20.916;2022-11-15T13:54:57;99940.03;;;8.91;100.00
21779;BME280;11050;52.222;20.916;2022-11-15T13:57:42;99938.38;;;8.90;100.00
21779;BME280;11050;52.222;20.916;2022-11-15T14:00:42;99938.63;;;8.88;100.00
21779;BME280;11050;52.222;20.916;2022-11-15T14:06:12;99940.63;;;8.93;100.00
21779;BME280;11050;52.222;20.916;2022-11-15T14:08:42;99938.13;;;8.91;100.00
21779;BME280;11050;52.222;20.916;2022-11-15T14:11:22;99930.06;;;8.85;100.00
21779;BME280;11050;52.222;20.916;2022-11-15T14:14:11;99933.91;;;8.84;100.00
21779;BME280;11050;52.222;20.916;2022-11-15T14:16:47;99931.06;;;8.79;100.00
21779;BME280;11050;52.222;20.916;2022-11-15T14:19:35;99921.38;;;8.71;100.00
21779;BME280;11050;52.222;20.916;2022-11-15T14:22:30;99923.03;;;8.72;100.00
21779;BME280;11050;52.222;20.916;2022-11-15T14:25:18;99914.81;;;8.72;100.00
21779;BME280;11050;52.222;20.916;2022-11-15T14:30:52;99916.97;;;8.70;100.00
21779;BME280;11050;52.222;20.916;2022-11-15T14:33:28;99913.66;;;8.68;100.00
21779;BME280;11050;52.222;20.916;2022-11-15T14:35:57;99914.00;;;8.72;100.00
21779;BME280;11050;52.222;20.916;2022-11-15T14:38:25;99913.66;;;8.68;100.00
21779;BME280;11050;52.222;20.916;2022-11-15T14:40:51;99911.19;;;8.67;100.00
21779;BME280;11050;52.222;20.916;2022-11-15T14:43:17;99922.22;;;8.72;100.00
21779;BME280;11050;52.222;20.916;2022-11-15T14:45:43;99916.72;;;8.72;100.00
21779;BME280;11050;52.222;20.916;2022-11-15T14:48:09;99918.81;;;8.65;100.00